Time;durP1;ratioP1;P1;durP2;ratioP2;P2;SDS_P1;SDS_P2;PMS_P1;PMS_P2;Temp;Humidity;BMP_temperature;BMP_pressure;BME280_temperature;BME280_humidity;BME280_pressure;Samples;Min_cycle;Max_cycle;Signal;HPM_P1;HPM_P2
2023/07/27 00:00:42;;;;;;;8.88;5.50;;;13.60;99.90;;;;;;5092896;28;20541;-58
2023/07/27 00:03:08;;;;;;;8.75;5.75;;;13.50;99.90;;;;;;5091528;28;20044;-58
2023/07/27 00:05:33;;;;;;;7.68;5.25;;;13.60;99.90;;;;;;5093194;28;20035;-58
2023/07/27 00:07:59;;;;;;;8.52;5.30;;;13.50;99.90;;;;;;5078415;28;20032;-58
2023/07/27 00:10:24;;;;;;;9.32;5.70;;;13.50;99.90;;;;;;5092504;28;20081;-57
2023/07/27 00:12:51;;;;;;;12.10;6.10;;;13.50;99.90;;;;;;5092402;28;20040;-57
2023/07/27 00:15:16;;;;;;;10.18;4.90;;;13.50;99.90;;;;;;5093118;28;20032;-58
2023/07/27 00:17:42;;;;;;;10.05;5.25;;;13.50;99.90;;;;;;5093124;28;20535;-57
2023/07/27 00:20:08;;;;;;;8.23;5.05;;;13.50;99.90;;;;;;5093019;28;20429;-57
2023/07/27 00:22:34;;;;;;;7.85;5.32;;;13.50;99.90;;;;;;5092890;28;20047;-57
2023/07/27 00:25:00;;;;;;;9.32;5.70;;;13.50;99.90;;;;;;5092233;28;20411;-57
2023/07/27 00:27:25;;;;;;;8.18;5.20;;;13.50;99.90;;;;;;5092486;28;20072;-57
2023/07/27 00:29:51;;;;;;;9.93;6.30;;;13.50;99.90;;;;;;5092450;28;20043;-58
2023/07/27 00:32:16;;;;;;;9.43;5.47;;;13.50;99.90;;;;;;5092599;28;20036;-57
2023/07/27 00:34:42;;;;;;;9.05;5.95;;;13.50;99.90;;;;;;5091087;28;20455;-58
2023/07/27 00:37:08;;;;;;;7.93;5.22;;;13.50;99.90;;;;;;5092464;28;20032;-57
2023/07/27 00:39:35;;;;;;;9.27;5.57;;;13.50;99.90;;;;;;5092629;28;20036;-57
2023/07/27 00:42:01;;;;;;;17.85;6.40;;;13.60;99.90;;;;;;5092197;28;20542;-57
2023/07/27 00:44:26;;;;;;;7.68;5.18;;;13.60;99.90;;;;;;5092416;28;20123;-57
2023/07/27 00:46:52;;;;;;;10.63;5.38;;;13.60;99.90;;;;;;5092383;28;20119;-58
2023/07/27 00:49:19;;;;;;;10.20;6.07;;;13.60;99.90;;;;;;5092559;28;20173;-57
2023/07/27 00:51:46;;;;;;;8.57;5.85;;;13.50;99.90;;;;;;5092376;28;20040;-57
2023/07/27 00:54:13;;;;;;;9.23;6.15;;;13.60;99.90;;;;;;5092327;28;20493;-57
2023/07/27 00:56:39;;;;;;;8.63;5.60;;;13.60;99.90;;;;;;5092551;28;20043;-58
2023/07/27 00:59:06;;;;;;;9.27;6.03;;;13.60;99.90;;;;;;5092285;28;20436;-57
2023/07/27 01:01:32;;;;;;;10.82;5.63;;;13.60;99.90;;;;;;5092263;28;20043;-58
2023/07/27 01:03:58;;;;;;;8.27;5.88;;;13.70;99.90;;;;;;5092284;28;20036;-58
2023/07/27 01:06:25;;;;;;;12.75;5.97;;;13.60;99.90;;;;;;5092278;28;20057;-58
2023/07/27 01:08:52;;;;;;;10.35;6.30;;;13.60;99.90;;;;;;5092297;28;20087;-58
2023/07/27 01:11:27;;;;;;;8.18;5.63;;;13.60;99.90;;;;;;5091193;28;20044;-58
2023/07/27 01:14:07;;;;;;;7.85;5.80;;;13.60;99.90;;;;;;5092400;28;20043;-58
2023/07/27 01:16:58;;;;;;;8.18;5.32;;;13.60;99.90;;;;;;5089627;28;20136;-58
2023/07/27 01:19:43;;;;;;;9.05;5.93;;;13.60;99.90;;;;;;5090204;28;20048;-57
2023/07/27 01:22:26;;;;;;;10.32;5.72;;;13.60;99.90;;;;;;5091912;28;20043;-57
2023/07/27 01:25:15;;;;;;;9.95;5.88;;;13.60;99.90;;;;;;5092602;28;20036;-57
2023/07/27 01:27:47;;;;;;;10.07;5.82;;;13.60;99.90;;;;;;5069484;28;20048;-57
2023/07/27 01:30:27;;;;;;;9.38;5.95;;;13.70;99.90;;;;;;5069448;28;20044;-58
2023/07/27 01:33:03;;;;;;;8.38;5.75;;;13.70;99.90;;;;;;5061280;28;20135;-57
2023/07/27 01:35:58;;;;;;;9.27;5.85;;;13.70;99.90;;;;;;5069314;28;20066;-58
2023/07/27 01:38:25;;;;;;;9.13;6.03;;;13.70;99.90;;;;;;5069403;28;20063;-57
2023/07/27 01:40:54;;;;;;;9.60;5.68;;;13.60;99.90;;;;;;5069585;28;20044;-58
2023/07/27 01:43:20;;;;;;;9.30;5.65;;;13.60;99.90;;;;;;5069661;28;20502;-57
2023/07/27 01:45:47;;;;;;;9.30;5.82;;;13.60;99.90;;;;;;5069409;28;20143;-57
2023/07/27 01:48:15;;;;;;;7.47;5.30;;;13.60;99.90;;;;;;5072268;28;20036;-57
2023/07/27 01:50:41;;;;;;;8.05;5.47;;;13.60;99.90;;;;;;5072683;28;20036;-58
2023/07/27 01:53:08;;;;;;;8.32;5.65;;;13.60;99.90;;;;;;5072923;28;20041;-57
2023/07/27 01:55:34;;;;;;;12.35;6.00;;;13.60;99.90;;;;;;5072394;28;20041;-57
2023/07/27 01:58:01;;;;;;;9.38;6.22;;;13.60;99.90;;;;;;5072958;28;20131;-58
2023/07/27 02:00:28;;;;;;;9.35;6.07;;;13.60;99.90;;;;;;5072775;28;20143;-58
2023/07/27 02:02:55;;;;;;;9.52;5.22;;;13.50;99.90;;;;;;5072832;28;20033;-58
2023/07/27 02:05:24;;;;;;;9.60;6.05;;;13.50;99.90;;;;;;5086801;28;20059;-58
2023/07/27 02:07:50;;;;;;;7.97;5.97;;;13.50;99.90;;;;;;5094158;28;20049;-57
2023/07/27 02:10:17;;;;;;;7.47;5.40;;;13.50;99.90;;;;;;5095058;28;20066;-58
2023/07/27 02:12:57;;;;;;;7.68;5.18;;;13.60;99.90;;;;;;5095165;28;20091;-58
2023/07/27 02:15:36;;;;;;;8.30;6.43;;;13.60;99.90;;;;;;5094974;28;20044;-58
2023/07/27 02:18:07;;;;;;;8.13;6.00;;;13.60;99.90;;;;;;5095220;28;20035;-58
2023/07/27 02:20:37;;;;;;;7.25;5.80;;;13.60;99.90;;;;;;5095265;28;20534;-58
2023/07/27 02:23:05;;;;;;;8.18;5.57;;;13.60;99.90;;;;;;5094950;28;20043;-57
2023/07/27 02:25:31;;;;;;;11.20;5.67;;;13.60;99.90;;;;;;5094519;28;20044;-58
2023/07/27 02:27:57;;;;;;;12.95;6.07;;;13.60;99.90;;;;;;5094748;28;20047;-57
2023/07/27 02:30:23;;;;;;;7.55;5.53;;;13.60;99.90;;;;;;5094747;28;20374;-58
2023/07/27 02:32:48;;;;;;;8.77;5.28;;;13.60;99.90;;;;;;5094622;28;20489;-57
2023/07/27 02:35:14;;;;;;;8.07;5.43;;;13.50;99.90;;;;;;5094953;28;20036;-57
2023/07/27 02:37:40;;;;;;;10.38;5.97;;;13.60;99.90;;;;;;5094811;28;20048;-58
2023/07/27 02:40:06;;;;;;;9.55;5.18;;;13.60;99.90;;;;;;5094456;28;20032;-57
2023/07/27 02:42:32;;;;;;;9.70;6.03;;;13.60;99.90;;;;;;5094420;28;20051;-59
2023/07/27 02:44:57;;;;;;;6.75;5.15;;;13.70;99.90;;;;;;5094257;28;20118;-58
2023/07/27 02:47:23;;;;;;;8.50;5.78;;;13.70;99.90;;;;;;5094375;28;20557;-58
2023/07/27 02:49:49;;;;;;;9.23;5.80;;;13.70;99.90;;;;;;5093100;28;20432;-57
2023/07/27 02:52:14;;;;;;;10.38;5.53;;;13.70;99.90;;;;;;5094306;28;20432;-57
2023/07/27 02:54:40;;;;;;;8.80;5.47;;;13.70;99.90;;;;;;5094303;28;20489;-58
2023/07/27 02:57:05;;;;;;;9.88;5.53;;;13.80;99.90;;;;;;5094140;28;20032;-58
2023/07/27 02:59:31;;;;;;;8.35;5.90;;;13.80;99.90;;;;;;5093663;28;20497;-57
2023/07/27 03:01:56;;;;;;;9.32;5.80;;;13.80;99.90;;;;;;5093512;28;20089;-58
2023/07/27 03:04:22;;;;;;;8.27;5.13;;;13.80;99.90;;;;;;5093788;28;20066;-58
2023/07/27 03:06:48;;;;;;;7.88;5.70;;;13.80;99.90;;;;;;5093863;28;20124;-59
2023/07/27 03:09:14;;;;;;;8.00;5.13;;;13.80;99.90;;;;;;5093498;28;20032;-58
2023/07/27 03:11:40;;;;;;;7.85;5.35;;;13.90;99.90;;;;;;5093937;28;20036;-58
2023/07/27 03:14:06;;;;;;;7.35;5.15;;;13.90;99.90;;;;;;5094027;28;20485;-57
2023/07/27 03:16:32;;;;;;;8.25;5.65;;;13.90;99.90;;;;;;5092740;28;20878;-57
2023/07/27 03:18:57;;;;;;;8.63;6.00;;;13.90;99.90;;;;;;5093865;28;20071;-57
2023/07/27 03:21:23;;;;;;;8.23;5.28;;;14.00;99.90;;;;;;5093689;28;20075;-57
2023/07/27 03:23:49;;;;;;;9.18;5.85;;;13.90;99.90;;;;;;5093890;28;20036;-57
2023/07/27 03:26:15;;;;;;;8.43;5.38;;;13.90;99.90;;;;;;5092905;28;20079;-56
2023/07/27 03:28:42;;;;;;;8.88;5.45;;;13.90;99.90;;;;;;5093482;28;20028;-56
2023/07/27 03:31:23;;;;;;;8.32;5.20;;;14.00;99.90;;;;;;5093293;28;20498;-56
2023/07/27 03:33:49;;;;;;;7.32;5.07;;;14.00;99.90;;;;;;5079278;28;20067;-56
2023/07/27 03:36:20;;;;;;;8.30;5.30;;;14.00;99.90;;;;;;5093523;28;20040;-57
2023/07/27 03:38:46;;;;;;;8.07;5.22;;;14.00;99.90;;;;;;5093592;28;20111;-57
2023/07/27 03:41:12;;;;;;;7.35;5.28;;;14.10;99.90;;;;;;5093342;28;20051;-56
2023/07/27 03:43:38;;;;;;;8.20;5.78;;;14.10;99.90;;;;;;5092897;28;20066;-57
2023/07/27 03:46:04;;;;;;;13.65;5.72;;;14.20;99.90;;;;;;5092934;28;20494;-57
2023/07/27 03:48:29;;;;;;;7.28;5.15;;;14.20;99.90;;;;;;5093462;28;20064;-57
2023/07/27 03:50:58;;;;;;;10.63;5.55;;;14.20;99.90;;;;;;5093263;28;20092;-57
2023/07/27 03:53:24;;;;;;;9.40;6.05;;;14.20;99.90;;;;;;5093163;28;20039;-58
2023/07/27 03:55:49;;;;;;;8.40;5.35;;;14.20;99.90;;;;;;5093015;28;20101;-57
2023/07/27 03:58:15;;;;;;;7.68;5.53;;;14.20;99.90;;;;;;5092685;28;20500;-58
2023/07/27 04:00:41;;;;;;;8.27;5.53;;;14.20;99.90;;;;;;5092420;28;20028;-57
2023/07/27 04:03:06;;;;;;;8.73;5.80;;;14.20;99.90;;;;;;5092894;28;20075;-58
2023/07/27 04:05:32;;;;;;;7.57;5.30;;;14.20;99.90;;;;;;5093004;28;20471;-57
2023/07/27 04:07:57;;;;;;;8.98;5.55;;;14.20;99.90;;;;;;5093077;28;20105;-58
2023/07/27 04:10:24;;;;;;;10.30;6.10;;;14.20;99.90;;;;;;5091685;28;20070;-58
2023/07/27 04:12:50;;;;;;;8.32;6.82;;;14.20;99.90;;;;;;5092439;28;20044;-58
2023/07/27 04:15:16;;;;;;;8.30;5.35;;;14.20;99.90;;;;;;5092622;28;20050;-58
2023/07/27 04:17:42;;;;;;;10.98;5.68;;;14.20;99.90;;;;;;5092542;28;20050;-56
2023/07/27 04:20:08;;;;;;;7.88;5.82;;;14.20;99.90;;;;;;5092632;28;20036;-58
2023/07/27 04:22:34;;;;;;;11.15;5.95;;;14.20;99.90;;;;;;5092670;28;20166;-58
2023/07/27 04:24:59;;;;;;;12.93;6.82;;;14.20;99.90;;;;;;5092387;28;20130;-58
2023/07/27 04:27:25;;;;;;;8.18;6.15;;;14.10;99.90;;;;;;5092423;28;20119;-57
2023/07/27 04:29:51;;;;;;;8.35;6.22;;;14.10;99.90;;;;;;5092428;28;20399;-57
2023/07/27 04:32:17;;;;;;;9.18;6.55;;;14.10;99.90;;;;;;5092505;28;20048;-57
2023/07/27 04:34:42;;;;;;;9.05;6.38;;;14.10;99.90;;;;;;5092509;28;20409;-56
2023/07/27 04:37:08;;;;;;;9.60;6.88;;;14.10;99.90;;;;;;5092346;28;20459;-57
2023/07/27 04:39:34;;;;;;;11.32;7.03;;;14.10;99.90;;;;;;5092470;28;20035;-57
2023/07/27 04:41:59;;;;;;;9.95;7.15;;;14.10;99.90;;;;;;5092233;28;20537;-58
2023/07/27 04:44:26;;;;;;;9.40;7.10;;;14.00;99.90;;;;;;5092224;28;20036;-57
2023/07/27 04:46:52;;;;;;;12.38;7.55;;;14.10;99.90;;;;;;5092621;28;20105;-57
2023/07/27 04:49:18;;;;;;;11.48;7.90;;;14.10;99.90;;;;;;5092510;28;20048;-56
2023/07/27 04:51:43;;;;;;;10.77;7.93;;;14.00;99.90;;;;;;5092388;28;20036;-57
2023/07/27 04:54:09;;;;;;;10.52;8.10;;;14.10;99.90;;;;;;5092374;28;20039;-57
2023/07/27 04:56:35;;;;;;;11.52;8.13;;;14.10;99.90;;;;;;5092293;28;20045;-56
2023/07/27 04:59:00;;;;;;;11.38;8.20;;;14.10;99.90;;;;;;5091888;28;20032;-57
2023/07/27 05:01:26;;;;;;;11.95;8.70;;;14.00;99.90;;;;;;5092362;28;20054;-57
2023/07/27 05:03:52;;;;;;;16.98;9.18;;;14.10;99.90;;;;;;5092284;28;20040;-57
2023/07/27 05:06:18;;;;;;;13.52;9.30;;;14.00;99.90;;;;;;5091257;28;20059;-58
2023/07/27 05:08:43;;;;;;;13.18;8.77;;;14.10;99.90;;;;;;5092642;28;20032;-58
2023/07/27 05:11:10;;;;;;;12.63;8.52;;;14.00;99.90;;;;;;5092609;28;20488;-58
2023/07/27 05:13:36;;;;;;;14.50;9.10;;;14.00;99.90;;;;;;5092494;28;20120;-58
2023/07/27 05:16:02;;;;;;;15.00;9.60;;;14.00;99.90;;;;;;5092401;28;20551;-59
2023/07/27 05:18:28;;;;;;;11.48;9.13;;;14.00;99.90;;;;;;5092983;28;20385;-58
2023/07/27 05:20:54;;;;;;;14.85;9.05;;;14.10;99.90;;;;;;5092099;28;20115;-58
2023/07/27 05:23:20;;;;;;;15.85;9.90;;;14.10;99.90;;;;;;5096462;28;20119;-58
2023/07/27 05:25:47;;;;;;;13.60;9.93;;;14.20;99.90;;;;;;5094743;28;20083;-59
2023/07/27 05:28:13;;;;;;;13.35;8.52;;;14.10;99.90;;;;;;5096278;28;20036;-58
2023/07/27 05:30:38;;;;;;;13.55;9.50;;;14.10;99.90;;;;;;5096496;28;20038;-58
2023/07/27 05:33:04;;;;;;;13.80;9.43;;;14.10;99.90;;;;;;5096299;28;20363;-58
2023/07/27 05:35:30;;;;;;;12.60;8.45;;;14.20;99.90;;;;;;5096343;28;20090;-58
2023/07/27 05:37:56;;;;;;;13.05;8.45;;;14.20;99.90;;;;;;5096091;28;20051;-58
2023/07/27 05:40:21;;;;;;;13.60;8.93;;;14.20;99.90;;;;;;5094876;28;20044;-58
2023/07/27 05:42:47;;;;;;;13.95;8.55;;;14.10;99.90;;;;;;5095664;28;20044;-58
2023/07/27 05:45:12;;;;;;;13.10;8.32;;;14.10;99.90;;;;;;5095932;28;20096;-59
2023/07/27 05:47:38;;;;;;;11.95;8.02;;;14.20;99.90;;;;;;5096064;28;20501;-58
2023/07/27 05:50:05;;;;;;;10.52;7.85;;;14.20;99.90;;;;;;5095687;28;20092;-58
2023/07/27 05:52:30;;;;;;;15.13;8.10;;;14.10;99.90;;;;;;5095528;28;20119;-58
2023/07/27 05:54:56;;;;;;;12.57;7.30;;;14.20;99.90;;;;;;5095386;28;20119;-58
2023/07/27 05:57:22;;;;;;;12.25;8.25;;;14.30;99.90;;;;;;5094166;28;20050;-58
2023/07/27 05:59:48;;;;;;;10.18;7.25;;;14.10;99.90;;;;;;5095888;28;20044;-57
2023/07/27 06:02:13;;;;;;;9.43;7.00;;;14.10;99.90;;;;;;5095178;28;20039;-58
2023/07/27 06:04:39;;;;;;;10.43;7.30;;;14.10;99.90;;;;;;5095368;28;20394;-57
2023/07/27 06:07:05;;;;;;;11.10;7.28;;;14.20;99.90;;;;;;5095580;28;20032;-57
2023/07/27 06:09:31;;;;;;;8.20;6.60;;;14.20;99.90;;;;;;5095366;28;20030;-58
2023/07/27 06:11:57;;;;;;;9.93;7.25;;;14.10;99.90;;;;;;5093946;28;20040;-57
2023/07/27 06:14:23;;;;;;;8.38;7.43;;;14.30;99.90;;;;;;5095347;28;20043;-57
2023/07/27 06:16:49;;;;;;;11.20;7.60;;;14.20;99.90;;;;;;5095166;28;20036;-58
2023/07/27 06:19:15;;;;;;;10.73;7.95;;;14.30;99.90;;;;;;5094981;28;20122;-58
2023/07/27 06:21:40;;;;;;;10.40;7.55;;;14.30;99.90;;;;;;5095036;28;20381;-58
2023/07/27 06:24:08;;;;;;;9.18;6.70;;;14.40;99.90;;;;;;5095196;28;20028;-57
2023/07/27 06:26:33;;;;;;;10.23;7.38;;;14.50;99.90;;;;;;5094622;28;20040;-57
2023/07/27 06:28:59;;;;;;;9.82;7.90;;;14.50;99.90;;;;;;5093914;28;20507;-57
2023/07/27 06:31:24;;;;;;;9.43;6.70;;;14.60;99.90;;;;;;5095031;28;20046;-58
2023/07/27 06:33:50;;;;;;;7.82;6.13;;;14.80;99.90;;;;;;5094455;28;20051;-57
2023/07/27 06:36:17;;;;;;;9.10;6.47;;;14.80;99.90;;;;;;5094908;28;20051;-57
2023/07/27 06:38:43;;;;;;;8.73;5.85;;;15.10;99.90;;;;;;5094766;28;20071;-57
2023/07/27 06:41:09;;;;;;;8.57;6.20;;;15.00;99.90;;;;;;5095090;28;20393;-57
2023/07/27 06:43:34;;;;;;;12.65;6.55;;;15.10;99.90;;;;;;5094741;28;20028;-58
2023/07/27 06:46:00;;;;;;;9.00;5.90;;;15.20;99.90;;;;;;5095016;28;20115;-57
2023/07/27 06:48:26;;;;;;;8.57;5.63;;;15.30;99.90;;;;;;5094615;28;20114;-57
2023/07/27 06:50:52;;;;;;;8.32;5.78;;;15.30;99.90;;;;;;5094598;28;20036;-57
2023/07/27 06:53:18;;;;;;;7.30;5.78;;;15.40;99.90;;;;;;5094819;28;20036;-57
2023/07/27 06:55:44;;;;;;;9.15;6.32;;;15.30;99.90;;;;;;5094276;28;20059;-57
2023/07/27 06:58:09;;;;;;;9.15;6.15;;;15.40;99.90;;;;;;5094816;28;20058;-57
2023/07/27 07:00:35;;;;;;;7.72;5.80;;;15.60;99.90;;;;;;5094936;28;20063;-58
2023/07/27 07:03:00;;;;;;;7.47;5.72;;;15.50;99.90;;;;;;5094218;28;20451;-57
2023/07/27 07:05:26;;;;;;;10.10;5.55;;;15.60;99.90;;;;;;5094375;28;20040;-57
2023/07/27 07:07:52;;;;;;;10.25;5.88;;;15.50;99.90;;;;;;5094459;28;20046;-58
2023/07/27 07:10:21;;;;;;;7.18;5.40;;;15.50;99.90;;;;;;5094638;28;20036;-58
2023/07/27 07:12:47;;;;;;;6.22;5.38;;;15.50;99.90;;;;;;5080668;28;20036;-58
2023/07/27 07:15:13;;;;;;;11.55;5.30;;;15.50;99.90;;;;;;5094186;28;20450;-57
2023/07/27 07:17:39;;;;;;;8.07;5.85;;;15.40;99.90;;;;;;5093884;28;20040;-58
2023/07/27 07:20:08;;;;;;;7.35;5.00;;;15.50;99.90;;;;;;5094334;28;20044;-58
2023/07/27 07:22:34;;;;;;;10.05;5.55;;;15.50;99.90;;;;;;5092538;28;20088;-58
2023/07/27 07:25:00;;;;;;;6.97;5.00;;;15.50;99.90;;;;;;5093879;28;20535;-58
2023/07/27 07:27:26;;;;;;;7.32;5.00;;;15.50;99.90;;;;;;5094071;28;20044;-58
2023/07/27 07:29:51;;;;;;;8.07;4.80;;;15.50;99.90;;;;;;5093779;28;20051;-58
2023/07/27 07:32:17;;;;;;;5.45;4.70;;;15.50;99.90;;;;;;5093879;28;20482;-58
2023/07/27 07:34:43;;;;;;;7.63;4.95;;;15.50;99.90;;;;;;5093654;28;20039;-59
2023/07/27 07:37:08;;;;;;;5.82;4.53;;;15.50;99.90;;;;;;5093832;28;20040;-58
2023/07/27 07:39:34;;;;;;;7.97;5.07;;;15.50;99.90;;;;;;5093834;28;20047;-58
2023/07/27 07:42:00;;;;;;;7.03;4.82;;;15.40;99.90;;;;;;5093354;28;20046;-59
2023/07/27 07:44:26;;;;;;;6.68;4.70;;;15.50;99.90;;;;;;5092773;28;20059;-58
2023/07/27 07:46:52;;;;;;;6.45;4.60;;;15.40;99.90;;;;;;5093525;28;20036;-58
2023/07/27 07:49:17;;;;;;;8.98;4.53;;;15.50;99.90;;;;;;5093483;28;20043;-58
2023/07/27 07:51:43;;;;;;;5.10;4.10;;;15.50;99.90;;;;;;5093615;28;20051;-58
2023/07/27 07:54:09;;;;;;;4.93;4.28;;;15.70;99.90;;;;;;5093615;28;20435;-57
2023/07/27 07:56:36;;;;;;;5.72;4.30;;;15.70;99.90;;;;;;5093168;28;20032;-58
2023/07/27 07:59:02;;;;;;;4.82;4.00;;;15.80;99.90;;;;;;5093334;28;20031;-58
2023/07/27 08:01:28;;;;;;;5.40;4.00;;;15.80;99.90;;;;;;5092869;28;20079;-58
2023/07/27 08:03:53;;;;;;;4.63;4.00;;;15.90;99.90;;;;;;5093095;28;20064;-57
2023/07/27 08:06:19;;;;;;;4.38;3.55;;;15.90;99.90;;;;;;5093200;28;20075;-57
2023/07/27 08:08:46;;;;;;;3.97;3.50;;;15.90;99.90;;;;;;5092881;28;20386;-57
2023/07/27 08:11:11;;;;;;;5.88;4.10;;;15.90;99.90;;;;;;5092879;28;20486;-58
2023/07/27 08:13:37;;;;;;;6.60;3.63;;;15.90;99.90;;;;;;5092796;28;20039;-57
2023/07/27 08:16:03;;;;;;;5.50;3.50;;;15.90;99.90;;;;;;5093033;28;20568;-58
2023/07/27 08:18:31;;;;;;;4.13;3.38;;;15.90;99.90;;;;;;5092941;28;20375;-59
2023/07/27 08:21:01;;;;;;;4.18;2.65;;;16.00;99.90;;;;;;5092392;28;20050;-58
2023/07/27 08:23:28;;;;;;;4.60;3.45;;;15.90;99.90;;;;;;5092781;28;20040;-58
2023/07/27 08:25:55;;;;;;;5.32;3.33;;;15.90;99.90;;;;;;5092386;28;20410;-58
2023/07/27 08:28:21;;;;;;;4.32;3.22;;;16.00;99.90;;;;;;5092929;28;20040;-58
2023/07/27 08:30:48;;;;;;;4.40;3.00;;;16.00;99.90;;;;;;5091478;28;20035;-58
2023/07/27 08:33:13;;;;;;;3.15;2.85;;;16.00;99.90;;;;;;5092671;28;20047;-58
2023/07/27 08:35:39;;;;;;;3.38;2.72;;;16.10;99.90;;;;;;5091302;28;20040;-58
2023/07/27 08:38:05;;;;;;;3.70;2.65;;;16.10;99.90;;;;;;5092392;28;20083;-58
2023/07/27 08:40:32;;;;;;;2.90;2.60;;;16.20;99.90;;;;;;5092994;28;20390;-58
2023/07/27 08:42:58;;;;;;;4.07;2.80;;;16.20;99.90;;;;;;5092771;28;20040;-58
2023/07/27 08:45:24;;;;;;;2.92;2.72;;;16.10;99.90;;;;;;5092572;28;20067;-58
2023/07/27 08:47:52;;;;;;;3.65;2.67;;;16.10;99.90;;;;;;5092626;28;20536;-59
2023/07/27 08:50:22;;;;;;;3.90;2.55;;;16.10;99.90;;;;;;5092204;28;20559;-59
2023/07/27 08:52:47;;;;;;;2.67;2.30;;;16.00;99.90;;;;;;5092620;28;20036;-58
2023/07/27 08:55:13;;;;;;;3.35;2.40;;;16.10;99.90;;;;;;5092588;28;20036;-58
2023/07/27 08:57:39;;;;;;;3.33;2.83;;;16.10;99.90;;;;;;5096312;28;20485;-58
2023/07/27 09:00:06;;;;;;;3.13;2.83;;;16.20;99.90;;;;;;5096522;28;20086;-58
2023/07/27 09:02:31;;;;;;;2.70;2.17;;;16.20;99.90;;;;;;5096408;28;20032;-58
2023/07/27 09:04:57;;;;;;;3.00;2.50;;;16.20;99.90;;;;;;5096380;28;20043;-60
2023/07/27 09:07:23;;;;;;;2.92;2.30;;;16.30;99.90;;;;;;5096430;28;20028;-58
2023/07/27 09:09:55;;;;;;;2.63;2.42;;;16.40;99.90;;;;;;5096307;28;20088;-58
2023/07/27 09:12:26;;;;;;;2.88;2.20;;;16.50;99.90;;;;;;5096267;28;20044;-58
2023/07/27 09:14:52;;;;;;;2.25;2.05;;;16.60;99.90;;;;;;5096794;28;20083;-57
2023/07/27 09:17:18;;;;;;;2.50;2.30;;;16.70;99.90;;;;;;5096184;28;20071;-59
2023/07/27 09:19:44;;;;;;;1.90;1.80;;;16.80;99.90;;;;;;5096305;28;20150;-58
2023/07/27 09:22:11;;;;;;;2.38;1.88;;;16.80;99.90;;;;;;5095910;28;20536;-58
2023/07/27 09:24:37;;;;;;;2.20;2.00;;;16.90;99.90;;;;;;5095833;28;20059;-58
2023/07/27 09:27:10;;;;;;;5.07;1.70;;;16.90;99.90;;;;;;5095834;28;20076;-58
2023/07/27 09:29:35;;;;;;;2.60;1.75;;;17.00;99.90;;;;;;5095753;28;20040;-58
2023/07/27 09:32:01;;;;;;;1.73;1.63;;;17.00;99.90;;;;;;5095598;28;20040;-58
2023/07/27 09:34:29;;;;;;;2.72;1.80;;;17.00;99.90;;;;;;5095768;28;20036;-58
2023/07/27 09:37:08;;;;;;;1.80;1.13;;;16.80;99.90;;;;;;5095801;28;20047;-58
2023/07/27 09:39:35;;;;;;;1.13;1.02;;;16.80;99.90;;;;;;5096018;28;20274;-58
2023/07/27 09:42:01;;;;;;;1.60;1.50;;;16.90;99.90;;;;;;5077056;28;20513;-58
2023/07/27 09:44:27;;;;;;;1.58;1.48;;;16.80;99.90;;;;;;5095559;28;20032;-58
2023/07/27 09:46:52;;;;;;;1.60;1.50;;;16.90;99.90;;;;;;5095800;28;20043;-58
2023/07/27 09:49:19;;;;;;;1.95;1.40;;;16.90;99.90;;;;;;5095401;28;20051;-58
2023/07/27 09:51:46;;;;;;;1.80;1.70;;;16.90;99.90;;;;;;5095656;28;20039;-57
2023/07/27 09:54:12;;;;;;;1.45;1.35;;;16.90;99.90;;;;;;5095578;28;20044;-58
2023/07/27 09:56:38;;;;;;;1.52;1.42;;;16.90;99.90;;;;;;5095240;28;20114;-58
2023/07/27 09:59:05;;;;;;;1.77;1.67;;;17.00;99.90;;;;;;5095176;28;20166;-57
2023/07/27 10:01:32;;;;;;;1.65;1.50;;;17.00;99.90;;;;;;5093453;28;20055;-57
2023/07/27 10:03:58;;;;;;;2.28;1.27;;;17.00;99.90;;;;;;5095148;28;20042;-57
2023/07/27 10:06:26;;;;;;;1.52;1.40;;;16.90;99.90;;;;;;5095353;28;20036;-58
2023/07/27 10:08:53;;;;;;;1.50;1.40;;;16.90;99.90;;;;;;5093834;28;20101;-57
2023/07/27 10:11:30;;;;;;;1.40;1.30;;;17.00;99.90;;;;;;5095268;28;20270;-58
2023/07/27 10:13:57;;;;;;;1.40;1.30;;;16.90;99.90;;;;;;5094872;28;20129;-57
2023/07/27 10:16:28;;;;;;;1.25;1.15;;;17.00;99.90;;;;;;5095489;28;20059;-58
2023/07/27 10:18:55;;;;;;;1.30;1.20;;;17.00;99.90;;;;;;5093498;28;20040;-58
2023/07/27 10:21:20;;;;;;;1.40;1.30;;;17.10;99.90;;;;;;5094820;28;20478;-58
2023/07/27 10:24:19;;;;;;;2.38;1.73;;;17.10;99.90;;;;;;5094571;28;20090;-58
2023/07/27 10:26:52;;;;;;;1.70;1.60;;;17.00;99.90;;;;;;5094434;28;20063;-57
2023/07/27 10:29:22;;;;;;;1.55;1.45;;;16.90;99.90;;;;;;5095026;28;20036;-57
2023/07/27 10:32:04;;;;;;;2.47;1.88;;;17.10;99.90;;;;;;5094802;28;20036;-58
2023/07/27 10:34:32;;;;;;;2.40;1.70;;;17.00;99.90;;;;;;5094949;28;20043;-58
2023/07/27 10:36:59;;;;;;;1.80;1.70;;;16.90;99.90;;;;;;5095181;28;20094;-58
2023/07/27 10:39:27;;;;;;;1.50;1.40;;;17.00;99.90;;;;;;5095213;28;20040;-59
2023/07/27 10:42:05;;;;;;;2.40;1.90;;;17.00;99.90;;;;;;5094982;28;20036;-59
2023/07/27 10:44:43;;;;;;;2.25;2.05;;;17.00;99.90;;;;;;5094829;28;20036;-59
2023/07/27 10:47:14;;;;;;;1.67;1.58;;;16.90;99.90;;;;;;5094455;28;20031;-58
2023/07/27 10:49:47;;;;;;;2.03;1.80;;;16.90;99.90;;;;;;5094744;28;20036;-58
2023/07/27 10:52:19;;;;;;;2.17;2.00;;;17.00;99.90;;;;;;5094702;28;20036;-58
2023/07/27 10:54:45;;;;;;;2.20;1.88;;;17.00;99.90;;;;;;5108116;28;20042;-58
2023/07/27 10:57:13;;;;;;;2.53;1.98;;;17.00;99.90;;;;;;5114776;28;20043;-58
2023/07/27 10:59:41;;;;;;;2.00;1.80;;;17.00;99.90;;;;;;5111747;28;20115;-59
2023/07/27 11:02:24;;;;;;;1.88;1.77;;;17.00;99.90;;;;;;5113796;28;20066;-58
2023/07/27 11:04:51;;;;;;;2.17;2.00;;;17.10;99.90;;;;;;5114916;28;20091;-59
2023/07/27 11:07:38;;;;;;;2.70;2.15;;;17.00;99.90;;;;;;5114373;28;20090;-58
2023/07/27 11:10:06;;;;;;;2.42;2.22;;;17.10;99.90;;;;;;5114357;28;20035;-57
2023/07/27 11:12:45;;;;;;;2.20;1.98;;;17.00;99.90;;;;;;5114616;28;20044;-57
2023/07/27 11:15:29;;;;;;;2.85;2.65;;;17.00;99.90;;;;;;5114186;28;20081;-58
2023/07/27 11:17:57;;;;;;;2.10;2.00;;;17.00;99.90;;;;;;5114149;28;20122;-58
2023/07/27 11:20:24;;;;;;;2.60;2.40;;;17.10;99.90;;;;;;5114150;28;20035;-58
2023/07/27 11:22:52;;;;;;;2.97;2.67;;;17.00;99.90;;;;;;5114415;28;20038;-58
2023/07/27 11:25:19;;;;;;;2.90;2.70;;;17.10;99.90;;;;;;5114139;28;20079;-58
2023/07/27 11:27:53;;;;;;;5.13;3.50;;;16.90;99.90;;;;;;5101557;28;20109;-57
2023/07/27 11:30:21;;;;;;;3.78;3.25;;;17.00;99.90;;;;;;5114376;28;20063;-58
2023/07/27 11:32:56;;;;;;;5.50;4.07;;;17.00;99.90;;;;;;5100682;27;20039;-58
2023/07/27 11:35:22;;;;;;;5.47;4.03;;;17.20;99.90;;;;;;5113326;28;20126;-58
2023/07/27 11:37:47;;;;;;;4.78;4.38;;;16.90;99.90;;;;;;5114159;28;20123;-58
2023/07/27 11:40:20;;;;;;;5.57;4.85;;;17.00;99.90;;;;;;5114349;28;20052;-59
2023/07/27 11:42:46;;;;;;;5.30;4.80;;;17.00;99.90;;;;;;5113871;28;20042;-58
2023/07/27 11:45:12;;;;;;;5.43;4.93;;;17.20;99.90;;;;;;5113799;28;20042;-59
2023/07/27 11:47:39;;;;;;;4.65;4.28;;;17.20;99.90;;;;;;5113763;28;20044;-59
2023/07/27 11:50:06;;;;;;;4.78;4.20;;;17.20;99.90;;;;;;5114072;27;20032;-59
2023/07/27 11:52:33;;;;;;;5.30;4.40;;;17.20;99.90;;;;;;5113759;28;20047;-58
2023/07/27 11:55:01;;;;;;;4.50;4.10;;;17.40;99.90;;;;;;5113465;28;20039;-57
2023/07/27 11:57:27;;;;;;;4.35;3.92;;;17.30;99.90;;;;;;5110001;28;20044;-58
2023/07/27 12:00:13;;;;;;;6.10;4.45;;;17.30;99.90;;;;;;5113382;28;20561;-57
2023/07/27 12:02:56;;;;;;;4.10;3.70;;;17.40;99.90;;;;;;5113566;28;20046;-57
2023/07/27 12:05:23;;;;;;;4.13;3.83;;;17.70;99.90;;;;;;5089588;28;20031;-58
2023/07/27 12:07:52;;;;;;;4.50;4.10;;;17.60;99.90;;;;;;5111961;28;20093;-58
2023/07/27 12:10:20;;;;;;;5.10;3.92;;;17.50;99.90;;;;;;5113774;28;20084;-58
2023/07/27 12:13:00;;;;;;;4.40;3.80;;;17.70;99.90;;;;;;5113226;28;20485;-58
2023/07/27 12:15:28;;;;;;;4.82;4.10;;;17.50;99.90;;;;;;5111955;28;20126;-58
2023/07/27 12:17:55;;;;;;;3.90;3.50;;;17.70;99.90;;;;;;5113346;28;20046;-58
2023/07/27 12:20:22;;;;;;;4.72;3.47;;;17.60;99.90;;;;;;5113063;28;20771;-59
2023/07/27 12:22:48;;;;;;;3.65;3.35;;;17.50;99.90;;;;;;5112916;28;20031;-59
2023/07/27 12:25:13;;;;;;;3.95;3.65;;;17.80;99.90;;;;;;5113254;28;20039;-58
2023/07/27 12:27:39;;;;;;;3.35;3.05;;;17.80;99.90;;;;;;5113215;28;20051;-58
2023/07/27 12:30:05;;;;;;;3.92;3.50;;;17.90;99.90;;;;;;5111684;28;20032;-59
2023/07/27 12:32:31;;;;;;;3.78;3.47;;;17.80;99.90;;;;;;5113068;28;20047;-58
2023/07/27 12:34:56;;;;;;;4.00;3.60;;;18.20;99.90;;;;;;5084491;28;20044;-59
2023/07/27 12:37:22;;;;;;;2.83;2.63;;;18.20;99.90;;;;;;5113268;28;20051;-59
2023/07/27 12:39:48;;;;;;;3.78;3.08;;;18.30;99.90;;;;;;5112893;28;20389;-59
2023/07/27 12:42:14;;;;;;;3.45;3.15;;;18.10;99.90;;;;;;5111963;28;20040;-58
2023/07/27 12:44:40;;;;;;;3.10;2.90;;;18.30;99.90;;;;;;5112953;28;20043;-60
2023/07/27 12:47:06;;;;;;;3.72;3.30;;;18.40;99.90;;;;;;5128866;28;20126;-60